sensor_id;sensor_type;location;lat;lon;timestamp;P1;P4;P2;P0;N10;N4;N25;N1;N05;TS
70689;SPS30;58266;52.166;5.290;2024-03-29T00:01:55;1.89;1.83;1.51;1.06;8.56;8.55;8.47;8.04;6.49;0.74
70689;SPS30;58266;52.166;5.290;2024-03-29T00:03:57;1.92;1.86;1.54;1.09;8.77;8.76;8.68;8.24;6.67;0.73
70689;SPS30;58266;52.166;5.290;2024-03-29T00:05:57;2.01;1.94;1.60;1.10;8.88;8.86;8.77;8.30;6.66;0.75
70689;SPS30;58266;52.166;5.290;2024-03-29T00:07:57;2.20;2.12;1.73;1.18;9.49;9.48;9.38;8.84;7.06;0.77
70689;SPS30;58266;52.166;5.290;2024-03-29T00:09:57;1.90;1.84;1.52;1.07;8.60;8.59;8.51;8.08;6.52;0.76
70689;SPS30;58266;52.166;5.290;2024-03-29T00:11:58;1.81;1.75;1.45;1.02;8.20;8.19;8.11;7.70;6.22;0.75
70689;SPS30;58266;52.166;5.290;2024-03-29T00:14:00;1.94;1.87;1.53;1.06;8.54;8.53;8.44;7.98;6.41;0.77
70689;SPS30;58266;52.166;5.290;2024-03-29T00:16:01;1.91;1.85;1.52;1.06;8.53;8.52;8.44;7.99;6.43;0.77
70689;SPS30;58266;52.166;5.290;2024-03-29T00:18:03;1.98;1.92;1.59;1.11;8.95;8.94;8.85;8.40;6.78;0.77
70689;SPS30;58266;52.166;5.290;2024-03-29T00:20:04;1.95;1.88;1.58;1.14;9.13;9.12;9.04;8.62;7.02;0.76
70689;SPS30;58266;52.166;5.290;2024-03-29T00:22:06;2.05;1.98;1.65;1.18;9.49;9.48;9.39;8.94;7.26;0.76
70689;SPS30;58266;52.166;5.290;2024-03-29T00:24:06;2.12;2.05;1.69;1.17;9.45;9.43;9.34;8.85;7.12;0.77
70689;SPS30;58266;52.166;5.290;2024-03-29T00:26:06;2.04;1.97;1.62;1.12;9.05;9.03;8.94;8.46;6.80;0.77
70689;SPS30;58266;52.166;5.290;2024-03-29T00:28:07;1.68;1.62;1.34;0.94;7.58;7.57;7.50;7.11;5.74;0.75
70689;SPS30;58266;52.166;5.290;2024-03-29T00:30:07;1.85;1.79;1.47;1.02;8.20;8.19;8.11;7.67;6.16;0.76
70689;SPS30;58266;52.166;5.290;2024-03-29T00:32:07;1.71;1.66;1.37;0.96;7.69;7.67;7.60;7.20;5.80;0.76
70689;SPS30;58266;52.166;5.290;2024-03-29T00:34:07;2.20;2.12;1.72;1.17;9.41;9.39;9.29;8.75;6.97;0.78
70689;SPS30;58266;52.166;5.290;2024-03-29T00:36:07;2.08;2.00;1.64;1.12;8.99;8.98;8.89;8.38;6.70;0.76
70689;SPS30;58266;52.166;5.290;2024-03-29T00:38:07;1.86;1.80;1.47;1.01;8.13;8.12;8.04;7.59;6.08;0.76
70689;SPS30;58266;52.166;5.290;2024-03-29T00:40:07;2.03;1.96;1.61;1.11;8.96;8.95;8.86;8.38;6.72;0.75
70689;SPS30;58266;52.166;5.290;2024-03-29T00:42:08;2.05;1.98;1.61;1.10;8.85;8.83;8.74;8.24;6.57;0.76
70689;SPS30;58266;52.166;5.290;2024-03-29T00:44:08;2.01;1.94;1.58;1.07;8.59;8.58;8.49;7.99;6.36;0.77
70689;SPS30;58266;52.166;5.290;2024-03-29T00:46:10;1.93;1.86;1.50;1.00;8.04;8.03;7.94;7.45;5.89;0.78
70689;SPS30;58266;52.166;5.290;2024-03-29T00:48:11;2.07;2.00;1.64;1.12;9.02;9.01;8.92;8.42;6.73;0.77
70689;SPS30;58266;52.166;5.290;2024-03-29T00:50:11;2.06;1.99;1.63;1.13;9.09;9.08;8.99;8.50;6.82;0.76
70689;SPS30;58266;52.166;5.290;2024-03-29T00:52:11;2.32;2.24;1.83;1.26;10.17;10.15;10.05;9.49;7.61;0.76
70689;SPS30;58266;52.166;5.290;2024-03-29T00:54:12;1.80;1.74;1.43;0.98;7.89;7.88;7.80;7.37;5.90;0.77
70689;SPS30;58266;52.166;5.290;2024-03-29T00:56:12;1.97;1.90;1.55;1.05;8.43;8.41;8.32;7.84;6.24;0.78
70689;SPS30;58266;52.166;5.290;2024-03-29T00:58:12;2.25;2.18;1.79;1.24;9.98;9.97;9.87;9.34;7.50;0.77
70689;SPS30;58266;52.166;5.290;2024-03-29T01:00:12;1.51;1.46;1.21;0.85;6.85;6.84;6.77;6.43;5.19;0.77
70689;SPS30;58266;52.166;5.290;2024-03-29T01:02:12;1.63;1.58;1.31;0.92;7.41;7.40;7.34;6.97;5.63;0.76
70689;SPS30;58266;52.166;5.290;2024-03-29T01:04:13;1.71;1.65;1.36;0.94;7.55;7.54;7.47;7.06;5.67;0.78
70689;SPS30;58266;52.166;5.290;2024-03-29T01:06:13;1.96;1.88;1.53;1.03;8.26;8.25;8.16;7.67;6.08;0.80
70689;SPS30;58266;52.166;5.290;2024-03-29T01:08:13;1.73;1.67;1.35;0.90;7.22;7.21;7.12;6.68;5.28;0.80
70689;SPS30;58266;52.166;5.290;2024-03-29T01:10:13;1.91;1.83;1.48;0.98;7.87;7.86;7.77;7.28;5.74;0.79
70689;SPS30;58266;52.166;5.290;2024-03-29T01:12:13;2.12;2.04;1.63;1.07;8.63;8.61;8.51;7.96;6.25;0.80
70689;SPS30;58266;52.166;5.290;2024-03-29T01:14:13;1.82;1.75;1.40;0.91;7.35;7.34;7.25;6.77;5.31;0.80
70689;SPS30;58266;52.166;5.290;2024-03-29T01:16:13;1.83;1.77;1.43;0.95;7.69;7.68;7.59;7.13;5.65;0.78
70689;SPS30;58266;52.166;5.290;2024-03-29T01:18:13;1.86;1.79;1.47;1.01;8.12;8.11;8.03;7.58;6.07;0.77
70689;SPS30;58266;52.166;5.290;2024-03-29T01:20:14;2.06;1.99;1.63;1.13;9.11;9.10;9.01;8.53;6.85;0.77
70689;SPS30;58266;52.166;5.290;2024-03-29T01:22:14;2.05;1.98;1.62;1.11;8.92;8.91;8.82;8.32;6.66;0.79
70689;SPS30;58266;52.166;5.290;2024-03-29T01:24:14;2.05;1.97;1.60;1.08;8.68;8.66;8.57;8.06;6.40;0.80
70689;SPS30;58266;52.166;5.290;2024-03-29T01:26:14;1.92;1.85;1.51;1.02;8.25;8.24;8.15;7.68;6.13;0.79
70689;SPS30;58266;52.166;5.290;2024-03-29T01:28:14;2.19;2.11;1.72;1.18;9.49;9.47;9.37;8.84;7.07;0.78
70689;SPS30;58266;52.166;5.290;2024-03-29T01:30:14;1.61;1.55;1.27;0.87;6.97;6.96;6.88;6.49;5.19;0.77
70689;SPS30;58266;52.166;5.290;2024-03-29T01:32:15;2.06;1.99;1.63;1.12;9.03;9.01;8.92;8.43;6.75;0.76
70689;SPS30;58266;52.166;5.290;2024-03-29T01:34:15;1.77;1.71;1.41;0.99;7.94;7.93;7.85;7.44;6.00;0.75
70689;SPS30;58266;52.166;5.290;2024-03-29T01:36:15;1.56;1.50;1.25;0.88;7.08;7.07;7.00;6.65;5.38;0.75
70689;SPS30;58266;52.166;5.290;2024-03-29T01:38:15;1.80;1.74;1.45;1.03;8.28;8.27;8.20;7.80;6.32;0.75
70689;SPS30;58266;52.166;5.290;2024-03-29T01:40:15;1.82;1.76;1.48;1.06;8.53;8.52;8.44;8.05;6.55;0.74
70689;SPS30;58266;52.166;5.290;2024-03-29T01:42:15;1.71;1.65;1.39;1.00;8.02;8.01;7.94;7.57;6.17;0.75
70689;SPS30;58266;52.166;5.290;2024-03-29T01:44:15;1.73;1.67;1.39;0.99;7.97;7.96;7.89;7.50;6.08;0.75
70689;SPS30;58266;52.166;5.290;2024-03-29T01:46:16;1.84;1.78;1.48;1.05;8.47;8.46;8.38;7.97;6.46;0.75
70689;SPS30;58266;52.166;5.290;2024-03-29T01:48:18;1.98;1.92;1.60;1.14;9.18;9.17;9.09;8.65;7.02;0.75
70689;SPS30;58266;52.166;5.290;2024-03-29T01:50:19;2.13;2.06;1.71;1.21;9.72;9.71;9.62;9.14;7.40;0.74
70689;SPS30;58266;52.166;5.290;2024-03-29T01:52:20;2.08;2.01;1.66;1.17;9.38;9.37;9.28;8.80;7.10;0.75
70689;SPS30;58266;52.166;5.290;2024-03-29T01:54:20;1.76;1.70;1.41;0.99;7.94;7.93;7.86;7.45;6.01;0.74
70689;SPS30;58266;52.166;5.290;2024-03-29T01:56:21;1.94;1.87;1.55;1.08;8.71;8.70;8.61;8.17;6.59;0.73
70689;SPS30;58266;52.166;5.290;2024-03-29T01:58:22;1.99;1.93;1.60;1.12;9.05;9.03;8.95;8.49;6.86;0.72
70689;SPS30;58266;52.166;5.290;2024-03-29T02:00:22;1.82;1.76;1.45;1.01;8.10;8.09;8.01;7.58;6.10;0.71
70689;SPS30;58266;52.166;5.290;2024-03-29T02:02:23;1.91;1.85;1.53;1.08;8.69;8.68;8.60;8.17;6.60;0.70
70689;SPS30;58266;52.166;5.290;2024-03-29T02:04:23;1.81;1.75;1.45;1.02;8.23;8.21;8.14;7.72;6.24;0.70
70689;SPS30;58266;52.166;5.290;2024-03-29T02:06:24;1.78;1.72;1.42;1.00;8.01;8.00;7.93;7.51;6.06;0.72
70689;SPS30;58266;52.166;5.290;2024-03-29T02:08:24;1.60;1.54;1.29;0.93;7.48;7.47;7.40;7.06;5.74;0.71
70689;SPS30;58266;52.166;5.290;2024-03-29T02:10:24;1.81;1.75;1.45;1.02;8.22;8.21;8.13;7.72;6.24;0.73
70689;SPS30;58266;52.166;5.290;2024-03-29T02:12:24;1.88;1.81;1.50;1.05;8.48;8.47;8.39;7.95;6.42;0.73
70689;SPS30;58266;52.166;5.290;2024-03-29T02:14:24;1.60;1.55;1.28;0.91;7.30;7.29;7.22;6.86;5.55;0.73
70689;SPS30;58266;52.166;5.290;2024-03-29T02:16:24;1.64;1.59;1.30;0.90;7.27;7.26;7.19;6.80;5.46;0.75
70689;SPS30;58266;52.166;5.290;2024-03-29T02:18:25;1.93;1.86;1.51;1.03;8.27;8.25;8.16;7.69;6.13;0.76
70689;SPS30;58266;52.166;5.290;2024-03-29T02:20:25;1.77;1.70;1.36;0.89;7.14;7.13;7.04;6.58;5.16;0.79
70689;SPS30;58266;52.166;5.290;2024-03-29T02:22:27;2.19;2.10;1.67;1.07;8.60;8.59;8.48;7.88;6.13;0.81
70689;SPS30;58266;52.166;5.290;2024-03-29T02:24:37;1.97;1.89;1.51;0.99;7.96;7.95;7.85;7.34;5.76;0.81
70689;SPS30;58266;52.166;5.290;2024-03-29T02:26:37;1.76;1.70;1.36;0.90;7.26;7.25;7.16;6.71;5.29;0.80
70689;SPS30;58266;52.166;5.290;2024-03-29T02:28:38;1.73;1.66;1.34;0.88;7.12;7.11;7.03;6.58;5.19;0.80
70689;SPS30;58266;52.166;5.290;2024-03-29T02:30:38;1.89;1.82;1.45;0.94;7.57;7.56;7.46;6.96;5.44;0.81
70689;SPS30;58266;52.166;5.290;2024-03-29T02:32:38;2.08;2.00;1.61;1.08;8.68;8.66;8.57;8.04;6.36;0.79
70689;SPS30;58266;52.166;5.290;2024-03-29T02:34:39;1.86;1.79;1.45;0.98;7.86;7.85;7.76;7.30;5.79;0.78
70689;SPS30;58266;52.166;5.290;2024-03-29T02:36:39;1.53;1.47;1.19;0.81;6.49;6.48;6.40;6.03;4.79;0.78
70689;SPS30;58266;52.166;5.290;2024-03-29T02:38:39;1.84;1.78;1.45;0.98;7.93;7.91;7.83;7.38;5.88;0.78
70689;SPS30;58266;52.166;5.290;2024-03-29T02:40:39;1.95;1.88;1.53;1.04;8.40;8.39;8.30;7.83;6.25;0.78
70689;SPS30;58266;52.166;5.290;2024-03-29T02:42:39;1.77;1.71;1.41;0.98;7.88;7.86;7.79;7.38;5.93;0.77
70689;SPS30;58266;52.166;5.290;2024-03-29T02:44:39;1.72;1.66;1.37;0.96;7.73;7.72;7.65;7.25;5.85;0.77
70689;SPS30;58266;52.166;5.290;2024-03-29T02:46:39;1.78;1.72;1.42;0.99;7.96;7.95;7.87;7.46;6.00;0.77
70689;SPS30;58266;52.166;5.290;2024-03-29T02:48:39;1.64;1.59;1.30;0.90;7.21;7.20;7.12;6.73;5.39;0.78
70689;SPS30;58266;52.166;5.290;2024-03-29T02:50:39;1.47;1.41;1.15;0.79;6.35;6.34;6.28;5.92;4.73;0.77
70689;SPS30;58266;52.166;5.290;2024-03-29T02:52:40;1.93;1.86;1.51;1.02;8.20;8.19;8.10;7.62;6.06;0.76
70689;SPS30;58266;52.166;5.290;2024-03-29T02:54:43;1.82;1.75;1.42;0.95;7.63;7.62;7.53;7.08;5.61;0.77
70689;SPS30;58266;52.166;5.290;2024-03-29T02:56:43;1.88;1.82;1.48;1.00;8.07;8.06;7.97;7.51;5.98;0.75
70689;SPS30;58266;52.166;5.290;2024-03-29T02:58:43;1.69;1.63;1.33;0.91;7.32;7.31;7.24;6.82;5.45;0.74
70689;SPS30;58266;52.166;5.290;2024-03-29T03:00:43;1.88;1.81;1.47;1.00;8.07;8.05;7.97;7.51;5.99;0.76
70689;SPS30;58266;52.166;5.290;2024-03-29T03:02:43;1.80;1.73;1.41;0.95;7.63;7.62;7.53;7.09;5.63;0.77
70689;SPS30;58266;52.166;5.290;2024-03-29T03:04:43;1.86;1.79;1.44;0.95;7.67;7.66;7.57;7.09;5.59;0.78
70689;SPS30;58266;52.166;5.290;2024-03-29T03:06:43;1.68;1.62;1.30;0.86;6.95;6.94;6.86;6.43;5.07;0.78
70689;SPS30;58266;52.166;5.290;2024-03-29T03:08:43;1.71;1.65;1.33;0.88;7.11;7.09;7.01;6.58;5.19;0.79
70689;SPS30;58266;52.166;5.290;2024-03-29T03:10:47;1.66;1.60;1.29;0.86;6.94;6.93;6.85;6.43;5.09;0.78
70689;SPS30;58266;52.166;5.290;2024-03-29T03:12:47;1.52;1.46;1.19;0.81;6.55;6.54;6.47;6.10;4.87;0.77
70689;SPS30;58266;52.166;5.290;2024-03-29T03:14:47;1.42;1.38;1.13;0.78;6.26;6.26;6.19;5.85;4.69;0.76
70689;SPS30;58266;52.166;5.290;2024-03-29T03:16:47;1.57;1.51;1.23;0.84;6.74;6.73;6.66;6.28;5.00;0.77
70689;SPS30;58266;52.166;5.290;2024-03-29T03:18:47;1.76;1.70;1.38;0.94;7.61;7.60;7.52;7.09;5.66;0.76
70689;SPS30;58266;52.166;5.290;2024-03-29T03:20:53;1.89;1.82;1.47;0.99;7.95;7.94;7.85;7.38;5.85;0.78
70689;SPS30;58266;52.166;5.290;2024-03-29T03:22:53;1.56;1.50;1.20;0.79;6.40;6.39;6.31;5.91;4.66;0.79
70689;SPS30;58266;52.166;5.290;2024-03-29T03:24:54;1.59;1.53;1.26;0.86;6.96;6.95;6.88;6.50;5.20;0.76
70689;SPS30;58266;52.166;5.290;2024-03-29T03:26:54;1.42;1.37;1.12;0.77;6.21;6.20;6.14;5.80;4.65;0.76
70689;SPS30;58266;52.166;5.290;2024-03-29T03:28:54;1.39;1.34;1.11;0.77;6.23;6.22;6.16;5.84;4.71;0.76
70689;SPS30;58266;52.166;5.290;2024-03-29T03:30:54;1.82;1.77;1.47;1.04;8.36;8.35;8.28;7.87;6.37;0.75
70689;SPS30;58266;52.166;5.290;2024-03-29T03:32:54;1.69;1.64;1.38;1.00;8.07;8.06;7.99;7.63;6.24;0.73
70689;SPS30;58266;52.166;5.290;2024-03-29T03:34:55;1.63;1.58;1.33;0.96;7.74;7.73;7.66;7.31;5.97;0.73
70689;SPS30;58266;52.166;5.290;2024-03-29T03:36:55;1.53;1.48;1.26;0.92;7.42;7.41;7.35;7.04;5.78;0.71
70689;SPS30;58266;52.166;5.290;2024-03-29T03:38:55;1.45;1.41;1.21;0.91;7.31;7.30;7.25;6.97;5.76;0.69
70689;SPS30;58266;52.166;5.290;2024-03-29T03:40:55;1.45;1.41;1.21;0.92;7.35;7.34;7.29;7.01;5.81;0.70
70689;SPS30;58266;52.166;5.290;2024-03-29T03:42:56;1.28;1.24;1.07;0.82;6.59;6.58;6.54;6.30;5.24;0.69
70689;SPS30;58266;52.166;5.290;2024-03-29T03:44:56;1.32;1.29;1.13;0.88;7.02;7.02;6.98;6.75;5.64;0.68
70689;SPS30;58266;52.166;5.290;2024-03-29T03:46:56;1.35;1.32;1.16;0.91;7.27;7.27;7.22;6.99;5.86;0.68
70689;SPS30;58266;52.166;5.290;2024-03-29T03:48:56;1.31;1.28;1.13;0.90;7.20;7.20;7.16;6.95;5.84;0.68
70689;SPS30;58266;52.166;5.290;2024-03-29T03:50:56;1.29;1.26;1.11;0.89;7.10;7.10;7.06;6.85;5.77;0.66
70689;SPS30;58266;52.166;5.290;2024-03-29T03:52:56;1.26;1.23;1.08;0.86;6.86;6.85;6.81;6.60;5.54;0.67
70689;SPS30;58266;52.166;5.290;2024-03-29T03:54:57;1.35;1.32;1.15;0.88;7.08;7.07;7.02;6.78;5.65;0.68
70689;SPS30;58266;52.166;5.290;2024-03-29T03:56:57;1.38;1.35;1.17;0.90;7.20;7.19;7.14;6.89;5.74;0.69
70689;SPS30;58266;52.166;5.290;2024-03-29T03:58:57;1.28;1.24;1.08;0.83;6.62;6.61;6.57;6.34;5.27;0.69
70689;SPS30;58266;52.166;5.290;2024-03-29T04:00:57;1.18;1.15;1.00;0.78;6.26;6.26;6.22;6.02;5.03;0.68
70689;SPS30;58266;52.166;5.290;2024-03-29T04:03:04;1.30;1.26;1.11;0.86;6.89;6.88;6.84;6.61;5.53;0.68
70689;SPS30;58266;52.166;5.290;2024-03-29T04:05:10;1.42;1.38;1.19;0.91;7.27;7.26;7.22;6.95;5.77;0.69
70689;SPS30;58266;52.166;5.290;2024-03-29T04:07:12;1.59;1.55;1.32;0.98;7.84;7.83;7.77;7.45;6.13;0.70
70689;SPS30;58266;52.166;5.290;2024-03-29T04:09:16;1.47;1.42;1.20;0.87;6.95;6.94;6.89;6.57;5.36;0.71
70689;SPS30;58266;52.166;5.290;2024-03-29T04:11:16;1.46;1.42;1.19;0.87;6.96;6.95;6.89;6.58;5.38;0.71
70689;SPS30;58266;52.166;5.290;2024-03-29T04:13:17;1.54;1.49;1.25;0.91;7.30;7.29;7.23;6.91;5.64;0.71
70689;SPS30;58266;52.166;5.290;2024-03-29T04:15:17;1.52;1.47;1.23;0.88;7.10;7.09;7.03;6.70;5.46;0.73
70689;SPS30;58266;52.166;5.290;2024-03-29T04:17:19;1.56;1.51;1.25;0.89;7.15;7.14;7.07;6.72;5.44;0.74
70689;SPS30;58266;52.166;5.290;2024-03-29T04:19:19;1.21;1.17;0.97;0.69;5.54;5.54;5.48;5.21;4.22;0.74
70689;SPS30;58266;52.166;5.290;2024-03-29T04:21:19;1.47;1.42;1.17;0.82;6.62;6.61;6.55;6.22;5.02;0.74
70689;SPS30;58266;52.166;5.290;2024-03-29T04:23:20;1.60;1.55;1.29;0.92;7.40;7.39;7.32;6.97;5.65;0.74
70689;SPS30;58266;52.166;5.290;2024-03-29T04:25:20;1.38;1.34;1.12;0.80;6.46;6.45;6.40;6.10;4.96;0.74
70689;SPS30;58266;52.166;5.290;2024-03-29T04:27:27;1.38;1.33;1.12;0.82;6.55;6.54;6.49;6.20;5.06;0.73
70689;SPS30;58266;52.166;5.290;2024-03-29T04:29:27;1.17;1.14;0.97;0.71;5.73;5.72;5.68;5.44;4.47;0.73
70689;SPS30;58266;52.166;5.290;2024-03-29T04:31:28;1.13;1.10;0.92;0.68;5.42;5.42;5.37;5.14;4.21;0.73
70689;SPS30;58266;52.166;5.290;2024-03-29T04:33:28;1.09;1.06;0.89;0.66;5.27;5.26;5.22;5.00;4.10;0.73
70689;SPS30;58266;52.166;5.290;2024-03-29T04:35:28;1.22;1.19;1.00;0.73;5.85;5.85;5.80;5.54;4.53;0.74
70689;SPS30;58266;52.166;5.290;2024-03-29T04:37:28;1.30;1.26;1.06;0.76;6.15;6.14;6.09;5.80;4.73;0.74
70689;SPS30;58266;52.166;5.290;2024-03-29T04:39:28;1.27;1.23;1.04;0.76;6.08;6.07;6.02;5.75;4.71;0.73
70689;SPS30;58266;52.166;5.290;2024-03-29T04:41:28;1.25;1.22;1.03;0.75;6.01;6.01;5.96;5.69;4.66;0.73
70689;SPS30;58266;52.166;5.290;2024-03-29T04:43:28;1.19;1.16;0.97;0.71;5.69;5.68;5.63;5.38;4.40;0.75
70689;SPS30;58266;52.166;5.290;2024-03-29T04:45:29;0.97;0.94;0.79;0.57;4.60;4.60;4.56;4.35;3.55;0.75
70689;SPS30;58266;52.166;5.290;2024-03-29T04:47:29;1.18;1.15;0.96;0.69;5.56;5.55;5.51;5.25;4.28;0.76
70689;SPS30;58266;52.166;5.290;2024-03-29T04:49:29;1.47;1.42;1.19;0.85;6.85;6.84;6.78;6.46;5.26;0.76
70689;SPS30;58266;52.166;5.290;2024-03-29T04:51:29;1.06;1.02;0.85;0.60;4.80;4.79;4.75;4.51;3.64;0.76
70689;SPS30;58266;52.166;5.290;2024-03-29T04:53:29;1.15;1.11;0.92;0.66;5.29;5.28;5.23;4.98;4.04;0.74
70689;SPS30;58266;52.166;5.290;2024-03-29T04:55:29;1.12;1.08;0.91;0.65;5.22;5.21;5.17;4.92;4.00;0.74
70689;SPS30;58266;52.166;5.290;2024-03-29T04:57:29;0.99;0.96;0.81;0.58;4.69;4.68;4.64;4.43;3.61;0.74
70689;SPS30;58266;52.166;5.290;2024-03-29T04:59:29;1.05;1.02;0.86;0.63;5.06;5.06;5.02;4.80;3.93;0.73
70689;SPS30;58266;52.166;5.290;2024-03-29T05:01:29;0.89;0.86;0.73;0.53;4.27;4.27;4.23;4.05;3.32;0.73
70689;SPS30;58266;52.166;5.290;2024-03-29T05:03:30;1.05;1.01;0.85;0.61;4.91;4.90;4.86;4.63;3.77;0.74
70689;SPS30;58266;52.166;5.290;2024-03-29T05:05:30;1.08;1.04;0.88;0.63;5.08;5.08;5.03;4.80;3.92;0.73
70689;SPS30;58266;52.166;5.290;2024-03-29T05:07:30;0.92;0.89;0.75;0.54;4.36;4.36;4.32;4.13;3.37;0.72
70689;SPS30;58266;52.166;5.290;2024-03-29T05:09:30;0.75;0.73;0.62;0.46;3.72;3.72;3.69;3.54;2.91;0.71
70689;SPS30;58266;52.166;5.290;2024-03-29T05:11:30;0.80;0.78;0.67;0.50;4.02;4.01;3.98;3.83;3.16;0.71
70689;SPS30;58266;52.166;5.290;2024-03-29T05:13:30;0.73;0.71;0.60;0.44;3.51;3.51;3.48;3.33;2.73;0.73
70689;SPS30;58266;52.166;5.290;2024-03-29T05:15:30;0.70;0.68;0.57;0.41;3.29;3.28;3.25;3.10;2.53;0.74
70689;SPS30;58266;52.166;5.290;2024-03-29T05:17:32;0.70;0.68;0.57;0.41;3.26;3.26;3.23;3.08;2.50;0.75
70689;SPS30;58266;52.166;5.290;2024-03-29T05:19:33;0.71;0.69;0.58;0.41;3.30;3.30;3.27;3.11;2.53;0.76
70689;SPS30;58266;52.166;5.290;2024-03-29T05:21:33;0.85;0.82;0.69;0.49;3.96;3.95;3.92;3.73;3.04;0.75
70689;SPS30;58266;52.166;5.290;2024-03-29T05:23:33;0.65;0.63;0.53;0.38;3.04;3.03;3.01;2.87;2.34;0.76
70689;SPS30;58266;52.166;5.290;2024-03-29T05:25:33;0.69;0.66;0.56;0.41;3.27;3.26;3.24;3.09;2.53;0.75
70689;SPS30;58266;52.166;5.290;2024-03-29T05:27:33;0.75;0.73;0.62;0.45;3.65;3.65;3.62;3.46;2.84;0.74
70689;SPS30;58266;52.166;5.290;2024-03-29T05:29:33;0.81;0.78;0.67;0.50;4.03;4.03;4.00;3.84;3.17;0.73
70689;SPS30;58266;52.166;5.290;2024-03-29T05:31:33;0.77;0.74;0.64;0.49;3.90;3.90;3.87;3.73;3.09;0.73
70689;SPS30;58266;52.166;5.290;2024-03-29T05:33:33;0.71;0.69;0.59;0.45;3.58;3.58;3.55;3.42;2.83;0.73
70689;SPS30;58266;52.166;5.290;2024-03-29T05:35:33;0.88;0.85;0.73;0.55;4.39;4.38;4.35;4.18;3.45;0.74
70689;SPS30;58266;52.166;5.290;2024-03-29T05:37:33;0.88;0.86;0.73;0.54;4.37;4.37;4.33;4.16;3.43;0.75
70689;SPS30;58266;52.166;5.290;2024-03-29T05:39:34;1.09;1.06;0.91;0.68;5.49;5.48;5.44;5.23;4.33;0.74
70689;SPS30;58266;52.166;5.290;2024-03-29T05:41:34;0.81;0.79;0.68;0.52;4.16;4.15;4.13;3.98;3.30;0.72
70689;SPS30;58266;52.166;5.290;2024-03-29T05:43:34;0.87;0.85;0.73;0.55;4.45;4.45;4.42;4.25;3.53;0.73
70689;SPS30;58266;52.166;5.290;2024-03-29T05:45:34;0.81;0.79;0.68;0.52;4.14;4.14;4.11;3.96;3.28;0.74
70689;SPS30;58266;52.166;5.290;2024-03-29T05:47:34;0.84;0.82;0.71;0.54;4.32;4.32;4.29;4.13;3.43;0.73
70689;SPS30;58266;52.166;5.290;2024-03-29T05:49:34;1.02;0.99;0.86;0.65;5.22;5.21;5.18;4.99;4.14;0.73
70689;SPS30;58266;52.166;5.290;2024-03-29T05:51:34;1.07;1.05;0.91;0.70;5.64;5.63;5.60;5.41;4.51;0.72
70689;SPS30;58266;52.166;5.290;2024-03-29T05:53:34;1.13;1.10;0.95;0.73;5.87;5.87;5.83;5.63;4.69;0.73
70689;SPS30;58266;52.166;5.290;2024-03-29T05:55:35;0.95;0.93;0.81;0.62;4.97;4.97;4.93;4.76;3.96;0.72
70689;SPS30;58266;52.166;5.290;2024-03-29T05:57:35;1.07;1.04;0.90;0.69;5.53;5.52;5.48;5.28;4.39;0.72
70689;SPS30;58266;52.166;5.290;2024-03-29T05:59:35;0.90;0.87;0.76;0.58;4.63;4.63;4.60;4.43;3.68;0.71
70689;SPS30;58266;52.166;5.290;2024-03-29T06:01:36;1.00;0.97;0.85;0.65;5.24;5.24;5.21;5.03;4.19;0.71
70689;SPS30;58266;52.166;5.290;2024-03-29T06:03:36;1.08;1.06;0.91;0.70;5.61;5.60;5.56;5.36;4.46;0.70
70689;SPS30;58266;52.166;5.290;2024-03-29T06:05:36;0.93;0.91;0.78;0.60;4.80;4.80;4.77;4.60;3.82;0.70
70689;SPS30;58266;52.166;5.290;2024-03-29T06:07:37;0.91;0.89;0.77;0.59;4.72;4.71;4.68;4.51;3.75;0.70
70689;SPS30;58266;52.166;5.290;2024-03-29T06:09:37;0.99;0.97;0.84;0.64;5.17;5.16;5.13;4.95;4.12;0.69
70689;SPS30;58266;52.166;5.290;2024-03-29T06:11:37;1.00;0.97;0.85;0.66;5.29;5.29;5.25;5.08;4.24;0.68
70689;SPS30;58266;52.166;5.290;2024-03-29T06:13:38;0.94;0.92;0.80;0.62;4.97;4.97;4.94;4.77;3.98;0.68
70689;SPS30;58266;52.166;5.290;2024-03-29T06:15:38;0.88;0.85;0.75;0.58;4.63;4.63;4.60;4.44;3.71;0.68
70689;SPS30;58266;52.166;5.290;2024-03-29T06:17:38;1.02;0.99;0.86;0.65;5.25;5.25;5.21;5.02;4.17;0.68
70689;SPS30;58266;52.166;5.290;2024-03-29T06:19:38;0.96;0.93;0.81;0.62;5.01;5.01;4.97;4.80;4.00;0.67
70689;SPS30;58266;52.166;5.290;2024-03-29T06:21:38;1.02;0.99;0.86;0.66;5.32;5.31;5.28;5.10;4.25;0.67
70689;SPS30;58266;52.166;5.290;2024-03-29T06:23:38;1.02;1.00;0.87;0.68;5.42;5.41;5.38;5.20;4.35;0.66
70689;SPS30;58266;52.166;5.290;2024-03-29T06:25:38;0.96;0.94;0.83;0.66;5.28;5.28;5.25;5.09;4.28;0.65
70689;SPS30;58266;52.166;5.290;2024-03-29T06:27:38;0.83;0.82;0.73;0.58;4.67;4.67;4.64;4.51;3.81;0.65
70689;SPS30;58266;52.166;5.290;2024-03-29T06:29:39;0.96;0.94;0.84;0.67;5.39;5.39;5.36;5.21;4.40;0.65
70689;SPS30;58266;52.166;5.290;2024-03-29T06:31:39;0.88;0.86;0.77;0.63;5.02;5.02;4.99;4.86;4.11;0.65
70689;SPS30;58266;52.166;5.290;2024-03-29T06:33:39;0.86;0.85;0.77;0.64;5.09;5.09;5.07;4.95;4.21;0.65
70689;SPS30;58266;52.166;5.290;2024-03-29T06:35:39;0.80;0.79;0.73;0.61;4.90;4.90;4.88;4.79;4.10;0.64
70689;SPS30;58266;52.166;5.290;2024-03-29T06:37:39;0.85;0.84;0.77;0.64;5.14;5.14;5.12;5.01;4.28;0.64
70689;SPS30;58266;52.166;5.290;2024-03-29T06:39:40;0.79;0.77;0.71;0.60;4.80;4.80;4.78;4.69;4.01;0.63
70689;SPS30;58266;52.166;5.290;2024-03-29T06:41:40;0.78;0.77;0.71;0.60;4.82;4.82;4.80;4.72;4.04;0.64
70689;SPS30;58266;52.166;5.290;2024-03-29T06:43:43;0.73;0.72;0.67;0.58;4.61;4.60;4.59;4.51;3.88;0.63
70689;SPS30;58266;52.166;5.290;2024-03-29T06:45:43;0.87;0.86;0.80;0.69;5.50;5.50;5.48;5.39;4.64;0.63
70689;SPS30;58266;52.166;5.290;2024-03-29T06:47:43;0.81;0.80;0.75;0.66;5.26;5.26;5.25;5.17;4.47;0.62
70689;SPS30;58266;52.166;5.290;2024-03-29T06:49:43;0.72;0.71;0.67;0.59;4.69;4.69;4.68;4.61;3.98;0.62
70689;SPS30;58266;52.166;5.290;2024-03-29T06:51:43;0.66;0.66;0.62;0.54;4.28;4.28;4.27;4.21;3.63;0.63
70689;SPS30;58266;52.166;5.290;2024-03-29T06:53:44;0.71;0.70;0.66;0.58;4.62;4.62;4.61;4.54;3.92;0.62
70689;SPS30;58266;52.166;5.290;2024-03-29T06:55:44;0.86;0.85;0.80;0.70;5.60;5.60;5.59;5.51;4.76;0.62
70689;SPS30;58266;52.166;5.290;2024-03-29T06:57:44;0.96;0.95;0.90;0.78;6.28;6.28;6.26;6.17;5.33;0.62
70689;SPS30;58266;52.166;5.290;2024-03-29T06:59:44;0.78;0.77;0.73;0.65;5.20;5.20;5.19;5.13;4.45;0.60
70689;SPS30;58266;52.166;5.290;2024-03-29T07:01:44;0.82;0.81;0.77;0.68;5.46;5.46;5.45;5.38;4.67;0.60
70689;SPS30;58266;52.166;5.290;2024-03-29T07:03:44;0.84;0.83;0.79;0.69;5.51;5.51;5.49;5.42;4.69;0.60
70689;SPS30;58266;52.166;5.290;2024-03-29T07:05:45;0.78;0.77;0.73;0.64;5.11;5.11;5.10;5.03;4.36;0.60
70689;SPS30;58266;52.166;5.290;2024-03-29T07:07:46;0.90;0.89;0.85;0.75;5.97;5.97;5.96;5.88;5.10;0.59
70689;SPS30;58266;52.166;5.290;2024-03-29T07:09:46;0.73;0.72;0.69;0.62;4.92;4.92;4.91;4.85;4.22;0.59
70689;SPS30;58266;52.166;5.290;2024-03-29T07:11:46;0.87;0.86;0.82;0.73;5.85;5.85;5.84;5.77;5.01;0.59
70689;SPS30;58266;52.166;5.290;2024-03-29T07:13:47;0.77;0.76;0.72;0.63;5.06;5.06;5.05;4.98;4.31;0.60
70689;SPS30;58266;52.166;5.290;2024-03-29T07:15:51;0.82;0.81;0.77;0.67;5.38;5.38;5.36;5.29;4.58;0.59
70689;SPS30;58266;52.166;5.290;2024-03-29T07:17:51;1.02;1.01;0.94;0.81;6.51;6.51;6.49;6.39;5.50;0.60
70689;SPS30;58266;52.166;5.290;2024-03-29T07:19:51;0.87;0.86;0.80;0.70;5.57;5.57;5.56;5.47;4.72;0.60
70689;SPS30;58266;52.166;5.290;2024-03-29T07:21:51;0.75;0.75;0.70;0.60;4.83;4.82;4.81;4.74;4.08;0.60
70689;SPS30;58266;52.166;5.290;2024-03-29T07:23:51;0.84;0.83;0.79;0.69;5.52;5.52;5.51;5.43;4.70;0.60
70689;SPS30;58266;52.166;5.290;2024-03-29T07:26:01;0.77;0.76;0.72;0.63;5.08;5.07;5.06;5.00;4.33;0.60
70689;SPS30;58266;52.166;5.290;2024-03-29T07:28:03;0.76;0.75;0.71;0.62;4.95;4.94;4.93;4.86;4.20;0.61
70689;SPS30;58266;52.166;5.290;2024-03-29T07:30:04;0.61;0.61;0.58;0.51;4.08;4.08;4.07;4.02;3.48;0.60
70689;SPS30;58266;52.166;5.290;2024-03-29T07:32:04;0.76;0.76;0.72;0.64;5.11;5.11;5.10;5.04;4.37;0.59
70689;SPS30;58266;52.166;5.290;2024-03-29T07:34:04;0.86;0.85;0.81;0.72;5.79;5.78;5.77;5.70;4.95;0.59
70689;SPS30;58266;52.166;5.290;2024-03-29T07:36:04;0.69;0.69;0.65;0.58;4.62;4.61;4.60;4.55;3.94;0.60
70689;SPS30;58266;52.166;5.290;2024-03-29T07:38:05;0.71;0.70;0.66;0.58;4.67;4.67;4.65;4.59;3.98;0.60
70689;SPS30;58266;52.166;5.290;2024-03-29T07:40:05;0.72;0.71;0.68;0.60;4.79;4.78;4.77;4.72;4.09;0.59
70689;SPS30;58266;52.166;5.290;2024-03-29T07:42:06;0.71;0.70;0.68;0.61;4.86;4.85;4.85;4.80;4.18;0.58
70689;SPS30;58266;52.166;5.290;2024-03-29T07:44:06;0.80;0.80;0.77;0.70;5.58;5.58;5.57;5.52;4.81;0.57
70689;SPS30;58266;52.166;5.290;2024-03-29T07:46:09;0.64;0.63;0.61;0.56;4.44;4.44;4.43;4.40;3.83;0.58
70689;SPS30;58266;52.166;5.290;2024-03-29T07:48:12;0.78;0.77;0.74;0.67;5.39;5.38;5.38;5.33;4.64;0.60
70689;SPS30;58266;52.166;5.290;2024-03-29T07:50:13;0.81;0.80;0.77;0.69;5.54;5.54;5.53;5.47;4.76;0.60
70689;SPS30;58266;52.166;5.290;2024-03-29T07:52:13;0.65;0.64;0.62;0.55;4.41;4.41;4.40;4.35;3.79;0.60
70689;SPS30;58266;52.166;5.290;2024-03-29T07:54:13;0.81;0.80;0.77;0.68;5.47;5.47;5.46;5.40;4.69;0.60